createdAt,value
2022-11-12T00:01:02.002Z,13.80
2022-11-12T00:03:28.916Z,13.80
2022-11-12T00:05:55.712Z,13.70
2022-11-12T00:08:23.057Z,13.70
2022-11-12T00:10:50.241Z,13.70
2022-11-12T00:13:17.253Z,13.70
2022-11-12T00:15:45.188Z,13.70
2022-11-12T00:18:12.262Z,13.70
2022-11-12T00:20:39.088Z,13.70
2022-11-12T00:23:05.854Z,13.70
2022-11-12T00:25:32.810Z,13.70
2022-11-12T00:28:04.343Z,13.70
2022-11-12T00:30:31.293Z,13.70
2022-11-12T00:33:01.611Z,13.70
2022-11-12T00:35:28.553Z,13.60
2022-11-12T00:37:55.506Z,13.60
2022-11-12T00:40:22.437Z,13.60
2022-11-12T00:42:50.543Z,13.70
2022-11-12T00:45:17.460Z,13.60
2022-11-12T00:47:44.770Z,13.60
2022-11-12T00:50:11.561Z,13.60
2022-11-12T00:52:38.410Z,13.60
2022-11-12T00:55:05.335Z,13.60
2022-11-12T00:57:32.132Z,13.60
2022-11-12T00:59:59.014Z,13.60
2022-11-12T01:02:25.929Z,13.60
2022-11-12T01:04:52.767Z,13.60
2022-11-12T01:07:19.615Z,13.60
2022-11-12T01:09:46.489Z,13.70
2022-11-12T01:12:13.327Z,13.70
2022-11-12T01:14:40.153Z,13.70
2022-11-12T01:17:07.011Z,13.60
2022-11-12T01:19:33.805Z,13.70
2022-11-12T01:22:00.693Z,13.70
2022-11-12T01:24:27.639Z,13.80
2022-11-12T01:26:54.502Z,13.80
2022-11-12T01:29:21.334Z,13.70
2022-11-12T01:31:48.143Z,13.70
2022-11-12T01:34:15.020Z,13.80
2022-11-12T01:36:43.669Z,13.80
2022-11-12T01:39:10.675Z,13.80
2022-11-12T01:41:38.641Z,13.90
2022-11-12T01:44:20.287Z,13.80
2022-11-12T01:46:53.176Z,13.90
2022-11-12T01:49:24.571Z,13.90
2022-11-12T01:51:53.724Z,13.90
2022-11-12T01:54:21.346Z,14.00
2022-11-12T01:56:49.485Z,14.10
2022-11-12T01:59:20.111Z,14.10
2022-11-12T02:01:46.998Z,14.20
2022-11-12T02:04:14.658Z,14.20
2022-11-12T02:06:42.150Z,14.20
2022-11-12T02:09:10.022Z,14.30
2022-11-12T02:11:36.860Z,14.30
2022-11-12T02:14:05.066Z,14.30
2022-11-12T02:16:39.917Z,14.30
2022-11-12T02:19:08.114Z,14.40
2022-11-12T02:21:35.288Z,14.40
2022-11-12T02:24:14.352Z,14.40
2022-11-12T02:26:44.936Z,14.40
2022-11-12T02:29:11.818Z,14.40
2022-11-12T02:31:38.662Z,14.40
2022-11-12T02:34:05.570Z,14.40
2022-11-12T02:36:32.419Z,14.40
2022-11-12T02:38:59.327Z,14.50
2022-11-12T02:41:26.577Z,14.50
2022-11-12T02:43:53.414Z,14.50
2022-11-12T02:46:20.217Z,14.50
2022-11-12T02:48:47.143Z,14.50
2022-11-12T02:51:13.973Z,14.50
2022-11-12T02:53:40.811Z,14.50
2022-11-12T02:56:07.859Z,14.50
2022-11-12T02:58:34.743Z,14.50
2022-11-12T03:01:01.600Z,14.50
2022-11-12T03:03:28.415Z,14.50
2022-11-12T03:05:59.776Z,14.50
2022-11-12T03:08:27.611Z,14.50
2022-11-12T03:10:54.749Z,14.60
2022-11-12T03:13:21.598Z,14.60
2022-11-12T03:15:48.657Z,14.60
2022-11-12T03:18:16.450Z,14.60
2022-11-12T03:20:43.281Z,14.70
2022-11-12T03:23:11.168Z,14.70
2022-11-12T03:25:38.155Z,14.60
2022-11-12T03:28:06.890Z,14.60
2022-11-12T03:30:35.101Z,14.60
2022-11-12T03:33:02.095Z,14.70
2022-11-12T03:35:28.971Z,14.60
2022-11-12T03:37:55.779Z,14.60
2022-11-12T03:40:22.560Z,14.60
2022-11-12T03:42:49.847Z,14.60
2022-11-12T03:45:17.196Z,14.70
2022-11-12T03:47:44.916Z,14.70
2022-11-12T03:50:12.752Z,14.70
2022-11-12T03:52:40.139Z,14.70
2022-11-12T03:55:07.137Z,14.70
2022-11-12T03:57:33.937Z,14.70
2022-11-12T04:00:00.725Z,14.70
2022-11-12T04:02:30.208Z,14.70
2022-11-12T04:05:15.759Z,14.80
2022-11-12T04:08:00.922Z,14.80
2022-11-12T04:10:29.791Z,14.80
2022-11-12T04:13:14.842Z,14.80
2022-11-12T04:15:41.631Z,14.80
2022-11-12T04:18:40.772Z,14.80
2022-11-12T04:21:26.730Z,14.70
2022-11-12T04:23:53.512Z,14.80
2022-11-12T04:26:26.100Z,14.80
2022-11-12T04:29:11.394Z,14.80
2022-11-12T04:31:38.221Z,14.80
2022-11-12T04:34:23.884Z,14.80
2022-11-12T04:36:50.695Z,14.80
2022-11-12T04:39:17.650Z,14.70
2022-11-12T04:42:02.863Z,14.70
2022-11-12T04:44:48.347Z,14.60
2022-11-12T04:47:15.183Z,14.60
2022-11-12T04:49:41.994Z,14.60
2022-11-12T04:52:09.263Z,14.60
2022-11-12T04:54:36.106Z,14.60
2022-11-12T04:57:02.938Z,14.60
2022-11-12T04:59:29.789Z,14.60
2022-11-12T05:01:56.650Z,14.60
2022-11-12T05:04:23.563Z,14.60
2022-11-12T05:06:53.402Z,14.60
2022-11-12T05:09:21.031Z,14.50
2022-11-12T05:11:48.409Z,14.50
2022-11-12T05:14:15.290Z,14.50
2022-11-12T05:16:42.147Z,14.50
2022-11-12T05:19:09.146Z,14.50
2022-11-12T05:21:54.299Z,14.50
2022-11-12T05:24:41.179Z,14.50
2022-11-12T05:27:14.153Z,14.50
2022-11-12T05:29:41.540Z,14.40
2022-11-12T05:32:09.571Z,14.50
2022-11-12T05:34:36.796Z,14.40
2022-11-12T05:37:04.665Z,14.40
2022-11-12T05:39:31.522Z,14.40
2022-11-12T05:42:12.454Z,14.40
2022-11-12T05:44:40.016Z,14.40
2022-11-12T05:47:06.888Z,14.40
2022-11-12T05:49:33.649Z,14.30
2022-11-12T05:52:00.457Z,14.30
2022-11-12T05:54:27.226Z,14.30
2022-11-12T05:56:54.113Z,14.30
2022-11-12T05:59:20.993Z,14.30
2022-11-12T06:01:48.029Z,14.30
2022-11-12T06:04:15.160Z,14.30
2022-11-12T06:06:42.521Z,14.20
2022-11-12T06:09:09.683Z,14.30
2022-11-12T06:11:36.832Z,14.30
2022-11-12T06:14:04.331Z,14.30
2022-11-12T06:16:31.300Z,14.20
2022-11-12T06:18:58.393Z,14.10
2022-11-12T06:21:27.785Z,14.20
2022-11-12T06:23:56.479Z,14.10
2022-11-12T06:26:24.460Z,14.10
2022-11-12T06:28:51.713Z,14.10
2022-11-12T06:31:19.069Z,14.10
2022-11-12T06:33:46.318Z,14.10
2022-11-12T06:36:14.372Z,14.00
2022-11-12T06:38:41.630Z,14.00
2022-11-12T06:41:09.567Z,13.90
2022-11-12T06:43:36.744Z,13.90
2022-11-12T06:46:05.257Z,13.90
2022-11-12T06:48:32.207Z,13.80
2022-11-12T06:50:59.177Z,13.80
2022-11-12T06:53:25.988Z,13.90
2022-11-12T06:55:52.904Z,13.90
2022-11-12T06:58:19.729Z,13.90
2022-11-12T07:00:46.677Z,13.90
2022-11-12T07:03:13.996Z,13.80
2022-11-12T07:05:41.052Z,13.90
2022-11-12T07:08:08.128Z,13.90
2022-11-12T07:10:35.025Z,13.90
2022-11-12T07:13:01.945Z,13.90
2022-11-12T07:15:28.779Z,13.90
2022-11-12T07:17:55.545Z,13.80
2022-11-12T07:20:22.421Z,13.80
2022-11-12T07:22:49.345Z,13.90
2022-11-12T07:25:16.242Z,13.80
2022-11-12T07:27:43.059Z,13.90
2022-11-12T07:30:10.131Z,13.80
2022-11-12T07:32:42.063Z,13.80
2022-11-12T07:35:11.034Z,13.90
2022-11-12T07:37:37.943Z,13.90
2022-11-12T07:40:05.067Z,13.80
2022-11-12T07:42:35.730Z,13.90
2022-11-12T07:45:02.754Z,13.80
2022-11-12T07:47:29.706Z,13.80
2022-11-12T07:49:56.536Z,13.80
2022-11-12T07:52:23.389Z,13.80
2022-11-12T07:54:50.224Z,13.90
2022-11-12T07:57:17.106Z,13.80
2022-11-12T07:59:46.327Z,13.80
2022-11-12T08:02:13.461Z,13.90
2022-11-12T08:04:40.316Z,13.80
2022-11-12T08:07:07.305Z,13.80
2022-11-12T08:09:34.513Z,13.90
2022-11-12T08:12:01.318Z,13.80
2022-11-12T08:14:28.120Z,13.80
2022-11-12T08:16:54.959Z,13.80
2022-11-12T08:19:21.818Z,13.90
2022-11-12T08:21:48.671Z,13.90
2022-11-12T08:24:15.488Z,13.90
2022-11-12T08:26:42.341Z,13.90
2022-11-12T08:29:09.227Z,13.90
2022-11-12T08:31:36.250Z,13.90
2022-11-12T08:34:12.552Z,13.90
2022-11-12T08:36:40.535Z,13.90
2022-11-12T08:39:08.232Z,14.00
2022-11-12T08:41:35.471Z,14.00
2022-11-12T08:44:08.083Z,14.00
2022-11-12T08:46:35.454Z,13.90
2022-11-12T08:49:02.346Z,13.90
2022-11-12T08:51:29.179Z,14.00
2022-11-12T08:53:56.315Z,14.00
2022-11-12T08:56:23.147Z,14.00
2022-11-12T08:58:49.956Z,13.90
2022-11-12T09:01:16.804Z,14.00
2022-11-12T09:03:43.665Z,14.00
2022-11-12T09:06:10.597Z,14.10
2022-11-12T09:08:38.019Z,14.20
2022-11-12T09:11:05.231Z,14.20
2022-11-12T09:13:32.455Z,14.20
2022-11-12T09:16:06.800Z,14.30
2022-11-12T09:18:34.248Z,14.30
2022-11-12T09:21:04.994Z,14.40
2022-11-12T09:23:33.445Z,14.50
2022-11-12T09:26:00.380Z,14.50
2022-11-12T09:28:27.759Z,14.60
2022-11-12T09:30:54.997Z,14.70
2022-11-12T09:33:26.356Z,14.70
2022-11-12T09:35:53.635Z,14.70
2022-11-12T09:38:20.829Z,14.80
2022-11-12T09:40:53.794Z,14.80
2022-11-12T09:43:27.801Z,14.80
2022-11-12T09:46:21.408Z,14.90
2022-11-12T09:48:47.621Z,14.90
2022-11-12T09:51:22.148Z,15.00
2022-11-12T09:53:59.074Z,15.00
2022-11-12T09:56:26.709Z,15.00
2022-11-12T09:58:54.069Z,15.10
2022-11-12T10:01:23.984Z,15.00
2022-11-12T10:04:01.255Z,15.10
2022-11-12T10:06:31.322Z,15.10
2022-11-12T10:09:04.538Z,15.10
2022-11-12T10:12:10.063Z,15.00
2022-11-12T10:14:55.235Z,15.00
2022-11-12T10:17:37.066Z,15.10
2022-11-12T10:20:04.012Z,15.00
2022-11-12T10:22:36.791Z,15.00
2022-11-12T10:25:12.405Z,15.00
2022-11-12T10:27:40.407Z,15.00
2022-11-12T10:30:13.802Z,15.10
2022-11-12T10:32:42.660Z,15.10
2022-11-12T10:35:09.732Z,15.10
2022-11-12T10:37:46.972Z,15.10
2022-11-12T10:40:25.935Z,15.20
2022-11-12T10:43:03.786Z,15.20
2022-11-12T10:45:30.881Z,15.20
2022-11-12T10:47:58.116Z,15.30
2022-11-12T10:50:27.938Z,15.30
2022-11-12T10:52:56.846Z,15.30
2022-11-12T10:55:28.245Z,15.30
2022-11-12T10:58:10.517Z,15.30
2022-11-12T11:00:38.249Z,15.40
2022-11-12T11:03:07.067Z,15.40
2022-11-12T11:05:38.272Z,15.40
2022-11-12T11:08:05.769Z,15.40
2022-11-12T11:10:36.424Z,15.50
2022-11-12T11:13:20.828Z,15.50
2022-11-12T11:16:16.902Z,15.50
2022-11-12T11:18:46.052Z,15.60
2022-11-12T11:21:24.546Z,15.60
2022-11-12T11:23:55.918Z,15.60
2022-11-12T11:26:28.719Z,15.70
2022-11-12T11:29:08.009Z,15.80
2022-11-12T11:31:34.865Z,15.80
2022-11-12T11:34:11.918Z,15.80
2022-11-12T11:36:58.338Z,15.90
2022-11-12T11:39:35.414Z,15.90
2022-11-12T11:42:15.371Z,15.90
2022-11-12T11:44:57.703Z,15.90
2022-11-12T11:47:57.696Z,16.00
2022-11-12T11:50:32.894Z,16.00
2022-11-12T11:53:08.930Z,16.00
2022-11-12T11:55:42.768Z,15.90
2022-11-12T11:58:21.784Z,15.90
2022-11-12T12:01:08.399Z,15.90
2022-11-12T12:03:47.103Z,15.90
2022-11-12T12:06:17.087Z,15.90
2022-11-12T12:09:02.405Z,15.90
2022-11-12T12:11:43.389Z,15.90
2022-11-12T12:14:25.345Z,16.00
2022-11-12T12:17:12.460Z,16.00
2022-11-12T12:20:05.713Z,16.00
2022-11-12T12:22:42.024Z,16.00
2022-11-12T12:25:29.070Z,16.00
2022-11-12T12:28:05.035Z,15.90
2022-11-12T12:30:35.457Z,15.90
2022-11-12T12:33:08.376Z,16.00
2022-11-12T12:35:40.603Z,15.90
2022-11-12T12:38:26.206Z,15.90
2022-11-12T12:41:02.080Z,15.90
2022-11-12T12:43:33.434Z,15.80
2022-11-12T12:46:00.603Z,15.80
2022-11-12T12:48:29.436Z,15.80
2022-11-12T12:50:56.532Z,15.70
2022-11-12T12:53:23.352Z,15.60
2022-11-12T12:55:51.617Z,15.60
2022-11-12T12:58:29.067Z,15.60
2022-11-12T13:00:56.138Z,15.50
2022-11-12T13:03:41.720Z,15.50
2022-11-12T13:06:23.846Z,15.50
2022-11-12T13:08:50.612Z,15.50
2022-11-12T13:11:56.162Z,15.50
2022-11-12T13:14:29.160Z,15.50
2022-11-12T13:16:56.576Z,15.40
2022-11-12T13:19:27.353Z,15.40
2022-11-12T13:22:12.632Z,15.30
2022-11-12T13:24:58.125Z,15.30
2022-11-12T13:27:46.145Z,15.30
2022-11-12T13:30:18.804Z,15.30
2022-11-12T13:32:48.669Z,15.20
2022-11-12T13:35:18.674Z,15.20
2022-11-12T13:37:50.387Z,15.10
2022-11-12T13:40:23.234Z,15.10
2022-11-12T13:42:50.620Z,15.10
2022-11-12T13:45:18.485Z,15.00
2022-11-12T13:47:45.753Z,14.90
2022-11-12T13:50:31.314Z,14.80
2022-11-12T13:53:00.091Z,14.70
2022-11-12T13:55:26.982Z,14.60
2022-11-12T13:57:54.991Z,14.50
2022-11-12T14:00:23.776Z,14.40
2022-11-12T14:02:53.332Z,14.40
2022-11-12T14:05:25.309Z,14.30
2022-11-12T14:08:10.856Z,14.20
2022-11-12T14:10:41.010Z,14.10
2022-11-12T14:13:28.313Z,14.00
2022-11-12T14:16:13.637Z,13.90
2022-11-12T14:18:43.246Z,13.90
2022-11-12T14:21:13.561Z,13.90
2022-11-12T14:23:40.808Z,14.00
2022-11-12T14:26:07.656Z,13.80
2022-11-12T14:28:35.498Z,13.80
2022-11-12T14:31:03.214Z,13.70
2022-11-12T14:33:31.129Z,13.60
2022-11-12T14:36:03.340Z,13.60
2022-11-12T14:38:44.235Z,13.50
2022-11-12T14:41:15.753Z,13.40
2022-11-12T14:44:07.482Z,13.30
2022-11-12T14:46:48.243Z,13.20
2022-11-12T14:49:16.107Z,13.20
2022-11-12T14:51:50.308Z,13.20
2022-11-12T14:54:23.918Z,13.20
2022-11-12T14:56:50.739Z,13.10
2022-11-12T14:59:18.036Z,13.10
2022-11-12T15:02:49.922Z,13.10
2022-11-12T15:04:54.801Z,13.10
2022-11-12T15:07:25.702Z,13.00
2022-11-12T15:09:52.601Z,12.90
2022-11-12T15:12:21.036Z,12.90
2022-11-12T15:14:48.052Z,12.90
2022-11-12T15:17:27.087Z,12.80
2022-11-12T15:19:56.978Z,12.90
2022-11-12T15:22:23.937Z,12.90
2022-11-12T15:24:50.903Z,12.90
2022-11-12T15:27:33.379Z,12.90
2022-11-12T15:30:16.820Z,13.00
2022-11-12T15:32:43.639Z,13.00
2022-11-12T15:35:25.832Z,13.00
2022-11-12T15:37:52.782Z,13.00
2022-11-12T15:40:21.337Z,12.80
2022-11-12T15:42:48.641Z,12.80
2022-11-12T15:45:19.631Z,12.70
2022-11-12T15:47:46.791Z,12.80
2022-11-12T15:50:13.608Z,12.80
2022-11-12T15:52:40.903Z,12.70
2022-11-12T15:55:11.307Z,12.60
2022-11-12T15:57:46.282Z,12.60
2022-11-12T16:00:16.538Z,12.50
2022-11-12T16:02:43.787Z,12.50
2022-11-12T16:05:14.685Z,12.40
2022-11-12T16:07:41.492Z,12.30
2022-11-12T16:10:13.111Z,12.20
2022-11-12T16:12:40.071Z,12.10
2022-11-12T16:15:20.745Z,12.00
2022-11-12T16:17:48.302Z,11.90
2022-11-12T16:20:16.784Z,11.70
2022-11-12T16:22:43.613Z,11.50
2022-11-12T16:25:10.480Z,11.50
2022-11-12T16:27:38.156Z,11.40
2022-11-12T16:30:05.472Z,11.30
2022-11-12T16:32:32.315Z,11.20
2022-11-12T16:35:01.299Z,11.00
2022-11-12T16:37:28.499Z,11.00
2022-11-12T16:39:55.295Z,10.90
2022-11-12T16:42:22.221Z,10.90
2022-11-12T16:44:49.053Z,10.80
2022-11-12T16:47:16.034Z,10.80
2022-11-12T16:49:42.916Z,10.80
2022-11-12T16:52:10.642Z,10.70
2022-11-12T16:54:37.421Z,10.70
2022-11-12T16:57:04.389Z,10.70
2022-11-12T16:59:31.245Z,10.60
2022-11-12T17:01:58.418Z,10.60
2022-11-12T17:04:25.259Z,10.50
2022-11-12T17:06:52.229Z,10.60
2022-11-12T17:09:19.071Z,10.60
2022-11-12T17:11:45.872Z,10.60
2022-11-12T17:14:12.790Z,10.50
2022-11-12T17:16:39.874Z,10.40
2022-11-12T17:19:06.854Z,10.30
2022-11-12T17:21:33.685Z,10.30
2022-11-12T17:24:00.463Z,10.30
2022-11-12T17:26:27.401Z,10.20
2022-11-12T17:29:01.127Z,10.20
2022-11-12T17:31:30.550Z,10.10
2022-11-12T17:33:57.605Z,10.10
2022-11-12T17:36:26.104Z,10.00
2022-11-12T17:38:56.581Z,10.00
2022-11-12T17:41:23.825Z,10.00
2022-11-12T17:43:54.273Z,10.00
2022-11-12T17:46:21.097Z,10.00
2022-11-12T17:48:47.990Z,10.00
2022-11-12T17:51:16.325Z,10.00
2022-11-12T17:53:43.153Z,10.00
2022-11-12T17:56:11.784Z,10.00
2022-11-12T17:58:38.612Z,10.00
2022-11-12T18:01:11.191Z,9.90
2022-11-12T18:03:39.533Z,9.80
2022-11-12T18:06:06.787Z,9.80
2022-11-12T18:08:33.572Z,9.80
2022-11-12T18:11:00.377Z,9.80
2022-11-12T18:13:27.868Z,9.80
2022-11-12T18:15:54.926Z,9.80
2022-11-12T18:18:21.744Z,9.70
2022-11-12T18:20:48.722Z,9.80
2022-11-12T18:23:15.596Z,9.90
2022-11-12T18:25:42.495Z,9.90
2022-11-12T18:28:09.940Z,9.90
2022-11-12T18:30:37.466Z,9.90
2022-11-12T18:33:04.519Z,9.90
2022-11-12T18:35:31.515Z,9.90
2022-11-12T18:37:58.329Z,9.80
2022-11-12T18:40:25.408Z,9.80
2022-11-12T18:42:52.265Z,9.80
2022-11-12T18:45:19.156Z,9.80
2022-11-12T18:47:46.010Z,9.70
2022-11-12T18:50:12.853Z,9.80
2022-11-12T18:52:39.685Z,9.80
2022-11-12T18:55:07.005Z,9.70
2022-11-12T18:57:33.868Z,9.70
2022-11-12T19:00:00.824Z,9.60
2022-11-12T19:02:27.644Z,9.70
2022-11-12T19:04:55.464Z,9.70
2022-11-12T19:07:22.359Z,9.60
2022-11-12T19:09:49.231Z,9.60
2022-11-12T19:12:16.030Z,9.70
2022-11-12T19:14:42.928Z,9.60
2022-11-12T19:17:09.868Z,9.60
2022-11-12T19:19:36.658Z,9.70
2022-11-12T19:22:03.466Z,9.60
2022-11-12T19:24:31.302Z,9.60
2022-11-12T19:26:58.090Z,9.60
2022-11-12T19:29:24.911Z,9.50
2022-11-12T19:31:51.779Z,9.50
2022-11-12T19:34:18.650Z,9.50
2022-11-12T19:36:45.516Z,9.50
2022-11-12T19:39:12.324Z,9.40
2022-11-12T19:41:39.088Z,9.30
2022-11-12T19:44:06.144Z,9.20
2022-11-12T19:46:33.111Z,9.20
2022-11-12T19:48:59.958Z,9.20
2022-11-12T19:51:26.876Z,9.20
2022-11-12T19:53:53.925Z,9.20
2022-11-12T19:56:22.439Z,9.20
2022-11-12T19:58:49.607Z,9.20
2022-11-12T20:01:18.152Z,9.20
2022-11-12T20:03:45.595Z,9.10
2022-11-12T20:06:13.794Z,9.10
2022-11-12T20:08:40.728Z,9.10
2022-11-12T20:11:07.760Z,9.10
2022-11-12T20:13:34.667Z,9.10
2022-11-12T20:16:27.980Z,9.00
2022-11-12T20:18:55.802Z,9.00
2022-11-12T20:21:23.607Z,8.90
2022-11-12T20:23:50.433Z,8.80
2022-11-12T20:26:17.209Z,8.70
2022-11-12T20:28:44.151Z,8.60
2022-11-12T20:31:12.368Z,8.60
2022-11-12T20:33:42.441Z,8.60
2022-11-12T20:36:17.036Z,8.60
2022-11-12T20:38:44.565Z,8.50
2022-11-12T20:41:13.483Z,8.50
2022-11-12T20:43:40.333Z,8.40
2022-11-12T20:46:07.749Z,8.30
2022-11-12T20:48:37.727Z,8.30
2022-11-12T20:51:25.077Z,8.30
2022-11-12T20:53:58.780Z,8.20
2022-11-12T20:56:27.026Z,8.10
2022-11-12T20:58:53.934Z,8.10
2022-11-12T21:01:21.975Z,8.10
2022-11-12T21:03:48.937Z,8.10
2022-11-12T21:06:17.599Z,8.00
2022-11-12T21:08:44.448Z,8.00
2022-11-12T21:11:12.883Z,7.90
2022-11-12T21:13:40.026Z,7.90
2022-11-12T21:16:07.282Z,7.90
2022-11-12T21:18:34.885Z,7.90
2022-11-12T21:21:03.289Z,7.80
2022-11-12T21:23:30.883Z,7.80
2022-11-12T21:26:04.911Z,7.70
2022-11-12T21:28:38.449Z,7.60
2022-11-12T21:31:06.910Z,7.70
2022-11-12T21:33:34.028Z,7.70
2022-11-12T21:36:01.134Z,7.70
2022-11-12T21:38:28.759Z,7.70
2022-11-12T21:41:08.733Z,7.70
2022-11-12T21:43:36.553Z,7.70
2022-11-12T21:46:06.349Z,7.60
2022-11-12T21:48:33.162Z,7.60
2022-11-12T21:51:07.176Z,7.50
2022-11-12T21:53:34.033Z,7.50
2022-11-12T21:56:04.596Z,7.50
2022-11-12T21:58:31.587Z,7.50
2022-11-12T22:01:07.260Z,7.30
2022-11-12T22:03:34.081Z,7.20
2022-11-12T22:06:01.319Z,7.20
2022-11-12T22:08:28.525Z,7.30
2022-11-12T22:11:21.739Z,7.40
2022-11-12T22:13:49.181Z,7.40
2022-11-12T22:16:17.889Z,7.40
2022-11-12T22:18:46.091Z,7.20
2022-11-12T22:21:17.513Z,7.20
2022-11-12T22:23:44.736Z,7.20
2022-11-12T22:26:14.794Z,7.20
2022-11-12T22:28:41.627Z,7.30
2022-11-12T22:31:10.344Z,7.30
2022-11-12T22:33:37.295Z,7.30
2022-11-12T22:36:05.391Z,7.40
2022-11-12T22:38:33.187Z,7.40
2022-11-12T22:41:06.797Z,7.50
2022-11-12T22:43:33.665Z,7.40
2022-11-12T22:46:05.082Z,7.30
2022-11-12T22:48:32.221Z,7.20
2022-11-12T22:51:00.325Z,7.10
2022-11-12T22:53:27.894Z,7.20
2022-11-12T22:55:54.725Z,7.30
2022-11-12T22:58:22.289Z,7.30
2022-11-12T23:00:49.100Z,7.30
2022-11-12T23:03:16.153Z,7.30
2022-11-12T23:05:42.946Z,7.30
2022-11-12T23:08:09.777Z,7.20
2022-11-12T23:10:38.486Z,7.20
2022-11-12T23:13:08.453Z,7.20
2022-11-12T23:15:35.301Z,7.00
2022-11-12T23:18:02.054Z,7.00
2022-11-12T23:20:28.846Z,7.00
2022-11-12T23:22:55.685Z,6.90
2022-11-12T23:25:22.486Z,6.90
2022-11-12T23:27:49.287Z,6.80
2022-11-12T23:30:16.433Z,6.80
2022-11-12T23:32:43.255Z,6.80
2022-11-12T23:35:10.043Z,6.50
2022-11-12T23:37:36.877Z,6.40
2022-11-12T23:40:04.058Z,6.10
2022-11-12T23:42:30.885Z,6.10
2022-11-12T23:44:57.849Z,6.10
2022-11-12T23:47:24.724Z,6.20
2022-11-12T23:49:51.560Z,6.20
2022-11-12T23:52:19.058Z,6.10
2022-11-12T23:54:46.002Z,6.10
2022-11-12T23:57:12.919Z,6.10
2022-11-12T23:59:39.746Z,6.00
